HLI weather

Hollister Municipal Airport
Hollister, California, United States

Public forecast

Using degrees Fahrenheit for public forecast. Weather courtesy of forecast.io.

METAR (pilot weather report)

Closest report is San Martin Airport, 14.4 nm (26.7 km) NW. Retrieved UTC (0 seconds ago):

TAF (pilot weather forecast)

Closest forecast is Salinas Municipal Airport, 16.7 nm (31.0 km) SW. Retrieved 2019/08/19 12:24 UTC (3 hours ago):

TAF KSNS 191120Z 1912/2012 VRB04KT P6SM OVC012 FM191800 30005KT P6SM SCT015 FM192000 30012KT P6SM SKC FM200100 30010KT P6SM OVC012 FM200400 29008KT P6SM OVC010